sensor_id;sensor_type;location;lat;lon;timestamp;P1;durP1;ratioP1;P2;durP2;ratioP2
52642;SDS011;38531;53.296;6.614;2022-09-13T00:01:36;4.15;;;2.72;;
52642;SDS011;38531;53.296;6.614;2022-09-13T00:04:02;7.18;;;3.72;;
52642;SDS011;38531;53.296;6.614;2022-09-13T00:06:28;4.75;;;2.80;;
52642;SDS011;38531;53.296;6.614;2022-09-13T00:08:54;5.28;;;3.35;;
52642;SDS011;38531;53.296;6.614;2022-09-13T00:11:21;8.18;;;5.10;;
52642;SDS011;38531;53.296;6.614;2022-09-13T00:13:49;5.97;;;3.80;;
52642;SDS011;38531;53.296;6.614;2022-09-13T00:16:16;4.63;;;2.92;;
52642;SDS011;38531;53.296;6.614;2022-09-13T00:18:43;5.10;;;2.72;;
52642;SDS011;38531;53.296;6.614;2022-09-13T00:21:10;6.30;;;3.88;;
52642;SDS011;38531;53.296;6.614;2022-09-13T00:23:38;9.13;;;5.30;;
52642;SDS011;38531;53.296;6.614;2022-09-13T00:26:09;7.28;;;3.63;;
52642;SDS011;38531;53.296;6.614;2022-09-13T00:28:39;6.78;;;3.90;;
52642;SDS011;38531;53.296;6.614;2022-09-13T00:31:06;6.57;;;3.50;;
52642;SDS011;38531;53.296;6.614;2022-09-13T00:33:33;8.77;;;4.60;;
52642;SDS011;38531;53.296;6.614;2022-09-13T00:36:03;5.20;;;2.85;;
52642;SDS011;38531;53.296;6.614;2022-09-13T00:38:30;6.75;;;3.17;;
52642;SDS011;38531;53.296;6.614;2022-09-13T00:40:58;4.10;;;2.58;;
52642;SDS011;38531;53.296;6.614;2022-09-13T00:43:41;5.43;;;3.22;;
52642;SDS011;38531;53.296;6.614;2022-09-13T00:46:12;5.43;;;2.70;;
52642;SDS011;38531;53.296;6.614;2022-09-13T00:49:18;6.63;;;3.40;;
52642;SDS011;38531;53.296;6.614;2022-09-13T00:51:54;4.95;;;2.67;;
52642;SDS011;38531;53.296;6.614;2022-09-13T00:54:25;7.57;;;2.47;;
52642;SDS011;38531;53.296;6.614;2022-09-13T00:56:55;6.45;;;4.28;;
52642;SDS011;38531;53.296;6.614;2022-09-13T00:59:29;6.78;;;3.40;;
52642;SDS011;38531;53.296;6.614;2022-09-13T01:01:59;4.25;;;2.67;;
52642;SDS011;38531;53.296;6.614;2022-09-13T01:04:28;3.85;;;2.17;;
52642;SDS011;38531;53.296;6.614;2022-09-13T01:06:57;4.47;;;2.20;;
52642;SDS011;38531;53.296;6.614;2022-09-13T01:09:28;5.25;;;2.00;;
52642;SDS011;38531;53.296;6.614;2022-09-13T01:11:59;2.95;;;1.70;;
52642;SDS011;38531;53.296;6.614;2022-09-13T01:14:29;3.83;;;2.35;;
52642;SDS011;38531;53.296;6.614;2022-09-13T01:16:56;4.30;;;2.25;;
52642;SDS011;38531;53.296;6.614;2022-09-13T01:19:22;3.75;;;2.10;;
52642;SDS011;38531;53.296;6.614;2022-09-13T01:30:12;4.35;;;2.47;;
52642;SDS011;38531;53.296;6.614;2022-09-13T01:32:54;7.35;;;3.92;;
52642;SDS011;38531;53.296;6.614;2022-09-13T01:40:58;5.00;;;2.65;;
52642;SDS011;38531;53.296;6.614;2022-09-13T01:43:51;6.65;;;3.55;;
52642;SDS011;38531;53.296;6.614;2022-09-13T01:49:02;4.88;;;3.10;;
52642;SDS011;38531;53.296;6.614;2022-09-13T01:51:42;4.38;;;2.35;;
52642;SDS011;38531;53.296;6.614;2022-09-13T01:57:29;3.83;;;1.95;;
52642;SDS011;38531;53.296;6.614;2022-09-13T02:05:17;3.53;;;2.05;;
52642;SDS011;38531;53.296;6.614;2022-09-13T02:08:00;3.03;;;1.88;;
52642;SDS011;38531;53.296;6.614;2022-09-13T02:10:37;3.03;;;1.60;;
52642;SDS011;38531;53.296;6.614;2022-09-13T02:13:28;4.25;;;1.67;;
52642;SDS011;38531;53.296;6.614;2022-09-13T02:16:01;2.28;;;1.10;;
52642;SDS011;38531;53.296;6.614;2022-09-13T02:18:35;2.97;;;1.40;;
52642;SDS011;38531;53.296;6.614;2022-09-13T02:21:12;2.13;;;1.08;;
52642;SDS011;38531;53.296;6.614;2022-09-13T02:26:52;4.75;;;1.90;;
52642;SDS011;38531;53.296;6.614;2022-09-13T02:29:20;3.65;;;1.77;;
52642;SDS011;38531;53.296;6.614;2022-09-13T02:31:59;4.00;;;1.67;;
52642;SDS011;38531;53.296;6.614;2022-09-13T02:34:30;2.25;;;1.20;;
52642;SDS011;38531;53.296;6.614;2022-09-13T02:37:06;1.45;;;1.00;;
52642;SDS011;38531;53.296;6.614;2022-09-13T02:39:35;8.27;;;4.88;;
52642;SDS011;38531;53.296;6.614;2022-09-13T02:42:13;6.78;;;3.38;;
52642;SDS011;38531;53.296;6.614;2022-09-13T02:44:52;7.53;;;4.28;;
52642;SDS011;38531;53.296;6.614;2022-09-13T02:50:28;7.13;;;4.00;;
52642;SDS011;38531;53.296;6.614;2022-09-13T02:53:01;5.55;;;3.03;;
52642;SDS011;38531;53.296;6.614;2022-09-13T03:01:20;2.25;;;1.30;;
52642;SDS011;38531;53.296;6.614;2022-09-13T03:03:46;2.88;;;1.38;;
52642;SDS011;38531;53.296;6.614;2022-09-13T03:06:20;1.15;;;0.60;;
52642;SDS011;38531;53.296;6.614;2022-09-13T03:08:49;2.05;;;0.80;;
52642;SDS011;38531;53.296;6.614;2022-09-13T03:11:30;1.83;;;0.80;;
52642;SDS011;38531;53.296;6.614;2022-09-13T03:23:12;1.02;;;0.40;;
52642;SDS011;38531;53.296;6.614;2022-09-13T03:25:58;1.00;;;0.30;;
52642;SDS011;38531;53.296;6.614;2022-09-13T03:34:13;0.30;;;0.20;;
52642;SDS011;38531;53.296;6.614;2022-09-13T03:36:54;0.10;;;0.10;;
52642;SDS011;38531;53.296;6.614;2022-09-13T03:39:43;0.43;;;0.20;;
52642;SDS011;38531;53.296;6.614;2022-09-13T03:45:06;0.45;;;0.28;;
52642;SDS011;38531;53.296;6.614;2022-09-13T03:47:34;0.20;;;0.20;;
52642;SDS011;38531;53.296;6.614;2022-09-13T03:50:03;0.68;;;0.10;;
52642;SDS011;38531;53.296;6.614;2022-09-13T03:52:32;0.13;;;0.10;;
52642;SDS011;38531;53.296;6.614;2022-09-13T03:54:59;0.20;;;0.20;;
52642;SDS011;38531;53.296;6.614;2022-09-13T03:57:25;0.10;;;0.10;;
52642;SDS011;38531;53.296;6.614;2022-09-13T03:59:52;1.05;;;0.25;;
52642;SDS011;38531;53.296;6.614;2022-09-13T04:02:19;0.30;;;0.10;;
52642;SDS011;38531;53.296;6.614;2022-09-13T04:04:47;0.57;;;0.10;;
52642;SDS011;38531;53.296;6.614;2022-09-13T04:07:17;0.40;;;0.10;;
52642;SDS011;38531;53.296;6.614;2022-09-13T04:09:44;0.20;;;0.20;;
52642;SDS011;38531;53.296;6.614;2022-09-13T04:12:10;0.20;;;0.10;;
52642;SDS011;38531;53.296;6.614;2022-09-13T04:14:38;0.10;;;0.10;;
52642;SDS011;38531;53.296;6.614;2022-09-13T04:17:04;1.65;;;0.20;;
52642;SDS011;38531;53.296;6.614;2022-09-13T04:19:30;0.60;;;0.47;;
52642;SDS011;38531;53.296;6.614;2022-09-13T04:21:56;0.20;;;0.10;;
52642;SDS011;38531;53.296;6.614;2022-09-13T04:24:25;0.30;;;0.10;;
52642;SDS011;38531;53.296;6.614;2022-09-13T04:26:53;0.20;;;0.10;;
52642;SDS011;38531;53.296;6.614;2022-09-13T04:29:20;0.28;;;0.10;;
52642;SDS011;38531;53.296;6.614;2022-09-13T04:31:47;0.10;;;0.10;;
52642;SDS011;38531;53.296;6.614;2022-09-13T04:34:13;0.32;;;0.10;;
52642;SDS011;38531;53.296;6.614;2022-09-13T04:36:41;0.10;;;0.10;;
52642;SDS011;38531;53.296;6.614;2022-09-13T04:39:06;0.10;;;0.10;;
52642;SDS011;38531;53.296;6.614;2022-09-13T04:41:32;0.30;;;0.10;;
52642;SDS011;38531;53.296;6.614;2022-09-13T04:43:58;0.30;;;0.10;;
52642;SDS011;38531;53.296;6.614;2022-09-13T04:46:27;0.90;;;0.10;;
52642;SDS011;38531;53.296;6.614;2022-09-13T04:48:53;0.20;;;0.08;;
52642;SDS011;38531;53.296;6.614;2022-09-13T04:51:20;0.93;;;0.13;;
52642;SDS011;38531;53.296;6.614;2022-09-13T04:53:46;0.20;;;0.10;;
52642;SDS011;38531;53.296;6.614;2022-09-13T04:56:20;1.35;;;0.20;;
52642;SDS011;38531;53.296;6.614;2022-09-13T04:58:47;1.20;;;0.20;;
52642;SDS011;38531;53.296;6.614;2022-09-13T05:01:16;0.35;;;0.20;;
52642;SDS011;38531;53.296;6.614;2022-09-13T05:03:42;0.20;;;0.20;;
52642;SDS011;38531;53.296;6.614;2022-09-13T05:06:09;0.38;;;0.10;;
52642;SDS011;38531;53.296;6.614;2022-09-13T05:08:36;1.75;;;0.30;;
52642;SDS011;38531;53.296;6.614;2022-09-13T05:11:02;0.40;;;0.20;;
52642;SDS011;38531;53.296;6.614;2022-09-13T05:13:28;0.60;;;0.50;;
52642;SDS011;38531;53.296;6.614;2022-09-13T05:15:59;0.77;;;0.40;;
52642;SDS011;38531;53.296;6.614;2022-09-13T05:18:26;3.72;;;0.63;;
52642;SDS011;38531;53.296;6.614;2022-09-13T05:20:53;1.67;;;0.30;;
52642;SDS011;38531;53.296;6.614;2022-09-13T05:23:21;0.63;;;0.20;;
52642;SDS011;38531;53.296;6.614;2022-09-13T05:28:23;2.45;;;0.40;;
52642;SDS011;38531;53.296;6.614;2022-09-13T05:30:55;0.82;;;0.20;;
52642;SDS011;38531;53.296;6.614;2022-09-13T05:33:38;1.20;;;0.30;;
52642;SDS011;38531;53.296;6.614;2022-09-13T05:36:06;1.40;;;0.20;;
52642;SDS011;38531;53.296;6.614;2022-09-13T05:38:35;2.53;;;0.20;;
52642;SDS011;38531;53.296;6.614;2022-09-13T05:41:02;1.55;;;0.30;;
52642;SDS011;38531;53.296;6.614;2022-09-13T05:43:29;1.38;;;0.20;;
52642;SDS011;38531;53.296;6.614;2022-09-13T05:46:06;1.73;;;0.50;;
52642;SDS011;38531;53.296;6.614;2022-09-13T05:48:38;0.80;;;0.30;;
52642;SDS011;38531;53.296;6.614;2022-09-13T05:51:05;2.55;;;0.22;;
52642;SDS011;38531;53.296;6.614;2022-09-13T05:53:36;0.40;;;0.20;;
52642;SDS011;38531;53.296;6.614;2022-09-13T05:56:06;1.92;;;0.30;;
52642;SDS011;38531;53.296;6.614;2022-09-13T05:58:33;1.80;;;0.47;;
52642;SDS011;38531;53.296;6.614;2022-09-13T06:01:02;1.08;;;0.20;;
52642;SDS011;38531;53.296;6.614;2022-09-13T06:03:28;1.90;;;0.20;;
52642;SDS011;38531;53.296;6.614;2022-09-13T06:05:54;1.13;;;0.20;;
52642;SDS011;38531;53.296;6.614;2022-09-13T06:08:22;0.68;;;0.13;;
52642;SDS011;38531;53.296;6.614;2022-09-13T06:10:52;0.80;;;0.20;;
52642;SDS011;38531;53.296;6.614;2022-09-13T06:13:22;0.43;;;0.10;;
52642;SDS011;38531;53.296;6.614;2022-09-13T06:15:49;0.60;;;0.30;;
52642;SDS011;38531;53.296;6.614;2022-09-13T06:18:15;0.80;;;0.20;;
52642;SDS011;38531;53.296;6.614;2022-09-13T06:20:41;10.15;;;0.38;;
52642;SDS011;38531;53.296;6.614;2022-09-13T06:23:07;0.50;;;0.20;;
52642;SDS011;38531;53.296;6.614;2022-09-13T06:25:33;0.60;;;0.20;;
52642;SDS011;38531;53.296;6.614;2022-09-13T06:27:59;1.20;;;0.30;;
52642;SDS011;38531;53.296;6.614;2022-09-13T06:30:25;0.95;;;0.17;;
52642;SDS011;38531;53.296;6.614;2022-09-13T06:32:50;1.73;;;0.20;;
52642;SDS011;38531;53.296;6.614;2022-09-13T06:35:16;0.50;;;0.30;;
52642;SDS011;38531;53.296;6.614;2022-09-13T06:37:42;0.30;;;0.15;;
52642;SDS011;38531;53.296;6.614;2022-09-13T06:40:08;0.70;;;0.20;;
52642;SDS011;38531;53.296;6.614;2022-09-13T06:42:34;2.55;;;0.22;;
52642;SDS011;38531;53.296;6.614;2022-09-13T06:45:01;2.60;;;0.20;;
52642;SDS011;38531;53.296;6.614;2022-09-13T06:47:45;3.13;;;0.35;;
52642;SDS011;38531;53.296;6.614;2022-09-13T06:50:16;0.90;;;0.20;;
52642;SDS011;38531;53.296;6.614;2022-09-13T06:52:51;2.13;;;0.20;;
52642;SDS011;38531;53.296;6.614;2022-09-13T06:55:25;1.23;;;0.30;;
52642;SDS011;38531;53.296;6.614;2022-09-13T06:57:54;2.30;;;0.40;;
52642;SDS011;38531;53.296;6.614;2022-09-13T07:04:25;2.30;;;0.30;;
52642;SDS011;38531;53.296;6.614;2022-09-13T07:06:56;1.05;;;0.15;;
52642;SDS011;38531;53.296;6.614;2022-09-13T07:09:22;1.65;;;0.20;;
52642;SDS011;38531;53.296;6.614;2022-09-13T07:17:37;1.90;;;0.22;;
52642;SDS011;38531;53.296;6.614;2022-09-13T07:20:03;3.00;;;0.30;;
52642;SDS011;38531;53.296;6.614;2022-09-13T07:22:31;1.65;;;0.63;;
52642;SDS011;38531;53.296;6.614;2022-09-13T07:24:57;1.65;;;0.30;;
52642;SDS011;38531;53.296;6.614;2022-09-13T07:27:22;1.77;;;0.20;;
52642;SDS011;38531;53.296;6.614;2022-09-13T07:29:48;1.58;;;0.30;;
52642;SDS011;38531;53.296;6.614;2022-09-13T07:32:16;0.68;;;0.20;;
52642;SDS011;38531;53.296;6.614;2022-09-13T07:34:42;4.00;;;0.20;;
52642;SDS011;38531;53.296;6.614;2022-09-13T07:37:07;1.23;;;0.28;;
52642;SDS011;38531;53.296;6.614;2022-09-13T07:39:33;3.58;;;0.22;;
52642;SDS011;38531;53.296;6.614;2022-09-13T07:41:59;3.78;;;0.43;;
52642;SDS011;38531;53.296;6.614;2022-09-13T07:44:24;2.55;;;0.50;;
52642;SDS011;38531;53.296;6.614;2022-09-13T07:46:50;2.85;;;0.47;;
52642;SDS011;38531;53.296;6.614;2022-09-13T07:49:16;3.67;;;0.63;;
52642;SDS011;38531;53.296;6.614;2022-09-13T07:51:46;3.80;;;0.20;;
52642;SDS011;38531;53.296;6.614;2022-09-13T07:54:18;4.43;;;0.30;;
52642;SDS011;38531;53.296;6.614;2022-09-13T07:56:47;2.70;;;0.30;;
52642;SDS011;38531;53.296;6.614;2022-09-13T07:59:20;3.05;;;0.30;;
52642;SDS011;38531;53.296;6.614;2022-09-13T08:01:47;2.13;;;0.82;;
52642;SDS011;38531;53.296;6.614;2022-09-13T08:04:44;1.00;;;0.20;;
52642;SDS011;38531;53.296;6.614;2022-09-13T08:07:34;1.75;;;0.50;;
52642;SDS011;38531;53.296;6.614;2022-09-13T08:09:59;3.00;;;0.30;;
52642;SDS011;38531;53.296;6.614;2022-09-13T08:12:58;3.95;;;0.20;;
52642;SDS011;38531;53.296;6.614;2022-09-13T08:16:02;2.80;;;0.22;;
52642;SDS011;38531;53.296;6.614;2022-09-13T08:21:41;1.27;;;0.28;;
52642;SDS011;38531;53.296;6.614;2022-09-13T08:24:43;2.00;;;0.50;;
52642;SDS011;38531;53.296;6.614;2022-09-13T08:34:59;0.82;;;0.20;;
52642;SDS011;38531;53.296;6.614;2022-09-13T08:37:30;2.10;;;0.40;;
52642;SDS011;38531;53.296;6.614;2022-09-13T08:39:58;3.45;;;0.20;;
52642;SDS011;38531;53.296;6.614;2022-09-13T08:42:29;2.22;;;0.20;;
52642;SDS011;38531;53.296;6.614;2022-09-13T08:45:09;0.43;;;0.20;;
52642;SDS011;38531;53.296;6.614;2022-09-13T08:50:21;3.28;;;0.32;;
52642;SDS011;38531;53.296;6.614;2022-09-13T08:52:59;4.88;;;0.30;;
52642;SDS011;38531;53.296;6.614;2022-09-13T08:55:31;1.95;;;0.30;;
52642;SDS011;38531;53.296;6.614;2022-09-13T08:58:32;1.30;;;0.20;;
52642;SDS011;38531;53.296;6.614;2022-09-13T09:03:52;2.13;;;0.10;;
52642;SDS011;38531;53.296;6.614;2022-09-13T09:06:26;0.65;;;0.10;;
52642;SDS011;38531;53.296;6.614;2022-09-13T09:08:53;1.48;;;0.20;;
52642;SDS011;38531;53.296;6.614;2022-09-13T09:11:40;3.45;;;0.30;;
52642;SDS011;38531;53.296;6.614;2022-09-13T09:24:35;1.17;;;0.20;;
52642;SDS011;38531;53.296;6.614;2022-09-13T09:27:16;1.75;;;0.10;;
52642;SDS011;38531;53.296;6.614;2022-09-13T09:29:47;0.63;;;0.15;;
52642;SDS011;38531;53.296;6.614;2022-09-13T09:38:37;4.93;;;0.93;;
52642;SDS011;38531;53.296;6.614;2022-09-13T09:49:39;3.92;;;0.28;;
52642;SDS011;38531;53.296;6.614;2022-09-13T10:09:18;5.82;;;0.30;;
52642;SDS011;38531;53.296;6.614;2022-09-13T10:12:31;1.55;;;0.20;;
52642;SDS011;38531;53.296;6.614;2022-09-13T10:18:51;3.50;;;0.22;;
52642;SDS011;38531;53.296;6.614;2022-09-13T10:27:50;3.90;;;0.20;;
52642;SDS011;38531;53.296;6.614;2022-09-13T10:30:39;0.95;;;0.20;;
52642;SDS011;38531;53.296;6.614;2022-09-13T10:37:24;1.33;;;0.20;;
52642;SDS011;38531;53.296;6.614;2022-09-13T10:40:14;2.53;;;0.30;;
52642;SDS011;38531;53.296;6.614;2022-09-13T10:42:56;1.17;;;0.10;;
52642;SDS011;38531;53.296;6.614;2022-09-13T10:48:58;2.85;;;0.20;;
52642;SDS011;38531;53.296;6.614;2022-09-13T10:51:50;1.80;;;0.20;;
52642;SDS011;38531;53.296;6.614;2022-09-13T10:54:38;0.60;;;0.10;;
52642;SDS011;38531;53.296;6.614;2022-09-13T10:57:28;0.80;;;0.10;;
52642;SDS011;38531;53.296;6.614;2022-09-13T11:11:26;4.30;;;0.50;;
52642;SDS011;38531;53.296;6.614;2022-09-13T11:14:04;4.45;;;1.38;;
52642;SDS011;38531;53.296;6.614;2022-09-13T11:27:41;1.08;;;0.10;;
52642;SDS011;38531;53.296;6.614;2022-09-13T11:30:12;1.55;;;0.20;;
52642;SDS011;38531;53.296;6.614;2022-09-13T11:35:47;3.63;;;0.40;;
52642;SDS011;38531;53.296;6.614;2022-09-13T11:43:36;1.98;;;0.50;;
52642;SDS011;38531;53.296;6.614;2022-09-13T11:57:14;3.95;;;0.30;;
52642;SDS011;38531;53.296;6.614;2022-09-13T12:02:20;3.10;;;0.30;;
52642;SDS011;38531;53.296;6.614;2022-09-13T12:05:16;2.17;;;0.30;;
52642;SDS011;38531;53.296;6.614;2022-09-13T12:07:51;1.80;;;0.20;;
52642;SDS011;38531;53.296;6.614;2022-09-13T12:12:56;5.45;;;0.20;;
52642;SDS011;38531;53.296;6.614;2022-09-13T12:18:13;2.70;;;0.20;;
52642;SDS011;38531;53.296;6.614;2022-09-13T12:20:46;7.07;;;0.47;;
52642;SDS011;38531;53.296;6.614;2022-09-13T12:23:21;1.75;;;0.20;;
52642;SDS011;38531;53.296;6.614;2022-09-13T12:26:04;2.75;;;0.30;;
52642;SDS011;38531;53.296;6.614;2022-09-13T12:28:47;2.90;;;0.22;;
52642;SDS011;38531;53.296;6.614;2022-09-13T12:31:40;3.72;;;0.20;;
52642;SDS011;38531;53.296;6.614;2022-09-13T12:34:17;2.42;;;0.45;;
52642;SDS011;38531;53.296;6.614;2022-09-13T13:07:02;1.55;;;0.10;;
52642;SDS011;38531;53.296;6.614;2022-09-13T13:13:18;2.13;;;0.30;;
52642;SDS011;38531;53.296;6.614;2022-09-13T14:51:58;1.45;;;0.20;;
52642;SDS011;38531;53.296;6.614;2022-09-13T14:58:05;1.05;;;0.10;;
52642;SDS011;38531;53.296;6.614;2022-09-13T15:01:11;1.52;;;0.20;;
52642;SDS011;38531;53.296;6.614;2022-09-13T15:03:44;6.43;;;0.22;;
52642;SDS011;38531;53.296;6.614;2022-09-13T15:35:49;1.75;;;0.10;;
52642;SDS011;38531;53.296;6.614;2022-09-13T15:52:03;0.80;;;0.10;;
52642;SDS011;38531;53.296;6.614;2022-09-13T16:00:03;2.28;;;0.30;;
52642;SDS011;38531;53.296;6.614;2022-09-13T16:08:58;2.80;;;0.40;;
52642;SDS011;38531;53.296;6.614;2022-09-13T16:23:54;2.92;;;0.20;;
52642;SDS011;38531;53.296;6.614;2022-09-13T16:26:21;1.90;;;0.25;;
52642;SDS011;38531;53.296;6.614;2022-09-13T16:28:58;2.00;;;0.20;;
52642;SDS011;38531;53.296;6.614;2022-09-13T16:31:45;2.92;;;0.10;;
52642;SDS011;38531;53.296;6.614;2022-09-13T16:34:20;0.70;;;0.10;;
52642;SDS011;38531;53.296;6.614;2022-09-13T16:42:44;2.78;;;0.20;;
52642;SDS011;38531;53.296;6.614;2022-09-13T16:45:10;0.63;;;0.00;;
52642;SDS011;38531;53.296;6.614;2022-09-13T16:47:39;3.35;;;0.20;;
52642;SDS011;38531;53.296;6.614;2022-09-13T16:50:05;0.40;;;0.25;;
52642;SDS011;38531;53.296;6.614;2022-09-13T16:52:35;0.55;;;0.10;;
52642;SDS011;38531;53.296;6.614;2022-09-13T16:55:04;4.70;;;0.30;;
52642;SDS011;38531;53.296;6.614;2022-09-13T16:57:31;1.90;;;0.32;;
52642;SDS011;38531;53.296;6.614;2022-09-13T17:00:00;2.58;;;0.17;;
52642;SDS011;38531;53.296;6.614;2022-09-13T17:02:49;1.08;;;0.10;;
52642;SDS011;38531;53.296;6.614;2022-09-13T17:05:23;2.47;;;0.10;;
52642;SDS011;38531;53.296;6.614;2022-09-13T17:13:58;1.10;;;0.20;;
52642;SDS011;38531;53.296;6.614;2022-09-13T17:16:49;0.47;;;0.10;;
52642;SDS011;38531;53.296;6.614;2022-09-13T17:19:32;3.08;;;0.10;;
52642;SDS011;38531;53.296;6.614;2022-09-13T17:22:04;0.30;;;0.10;;
52642;SDS011;38531;53.296;6.614;2022-09-13T17:24:56;1.35;;;0.10;;
52642;SDS011;38531;53.296;6.614;2022-09-13T17:27:25;1.00;;;0.22;;
52642;SDS011;38531;53.296;6.614;2022-09-13T17:29:51;2.95;;;0.30;;
52642;SDS011;38531;53.296;6.614;2022-09-13T17:37:18;0.20;;;0.10;;
52642;SDS011;38531;53.296;6.614;2022-09-13T17:39:44;2.58;;;0.30;;
52642;SDS011;38531;53.296;6.614;2022-09-13T17:42:16;0.60;;;0.00;;
52642;SDS011;38531;53.296;6.614;2022-09-13T17:44:42;0.28;;;0.10;;
52642;SDS011;38531;53.296;6.614;2022-09-13T17:49:59;0.70;;;0.10;;
52642;SDS011;38531;53.296;6.614;2022-09-13T17:52:26;1.40;;;0.17;;
52642;SDS011;38531;53.296;6.614;2022-09-13T18:00:13;0.52;;;0.10;;
52642;SDS011;38531;53.296;6.614;2022-09-13T18:02:42;2.55;;;0.20;;
52642;SDS011;38531;53.296;6.614;2022-09-13T18:05:08;1.15;;;0.20;;
52642;SDS011;38531;53.296;6.614;2022-09-13T18:07:34;0.55;;;0.10;;
52642;SDS011;38531;53.296;6.614;2022-09-13T18:09:59;0.47;;;0.10;;
52642;SDS011;38531;53.296;6.614;2022-09-13T18:12:25;0.45;;;0.10;;
52642;SDS011;38531;53.296;6.614;2022-09-13T18:14:51;1.10;;;0.10;;
52642;SDS011;38531;53.296;6.614;2022-09-13T18:17:17;1.75;;;0.10;;
52642;SDS011;38531;53.296;6.614;2022-09-13T18:19:42;0.20;;;0.10;;
52642;SDS011;38531;53.296;6.614;2022-09-13T18:22:08;3.92;;;0.20;;
52642;SDS011;38531;53.296;6.614;2022-09-13T18:24:34;0.50;;;0.00;;
52642;SDS011;38531;53.296;6.614;2022-09-13T18:27:00;3.47;;;0.20;;
52642;SDS011;38531;53.296;6.614;2022-09-13T18:29:26;0.98;;;0.10;;
52642;SDS011;38531;53.296;6.614;2022-09-13T18:31:53;0.20;;;0.10;;
52642;SDS011;38531;53.296;6.614;2022-09-13T18:34:19;0.32;;;0.22;;
52642;SDS011;38531;53.296;6.614;2022-09-13T18:36:46;2.22;;;0.20;;
52642;SDS011;38531;53.296;6.614;2022-09-13T18:39:18;0.45;;;0.10;;
52642;SDS011;38531;53.296;6.614;2022-09-13T18:41:45;1.98;;;0.10;;
52642;SDS011;38531;53.296;6.614;2022-09-13T18:44:12;1.90;;;0.10;;
52642;SDS011;38531;53.296;6.614;2022-09-13T18:46:40;0.98;;;0.10;;
52642;SDS011;38531;53.296;6.614;2022-09-13T18:49:07;0.80;;;0.10;;
52642;SDS011;38531;53.296;6.614;2022-09-13T18:51:38;0.80;;;0.10;;
52642;SDS011;38531;53.296;6.614;2022-09-13T18:54:06;0.57;;;0.10;;
52642;SDS011;38531;53.296;6.614;2022-09-13T18:56:35;0.28;;;0.10;;
52642;SDS011;38531;53.296;6.614;2022-09-13T18:59:02;0.75;;;0.10;;
52642;SDS011;38531;53.296;6.614;2022-09-13T19:01:36;0.35;;;0.10;;
52642;SDS011;38531;53.296;6.614;2022-09-13T19:04:10;0.90;;;0.10;;
52642;SDS011;38531;53.296;6.614;2022-09-13T19:06:38;1.35;;;0.20;;
52642;SDS011;38531;53.296;6.614;2022-09-13T19:09:06;0.30;;;0.10;;
52642;SDS011;38531;53.296;6.614;2022-09-13T19:11:39;1.13;;;0.20;;
52642;SDS011;38531;53.296;6.614;2022-09-13T19:14:07;0.38;;;0.13;;
52642;SDS011;38531;53.296;6.614;2022-09-13T19:16:34;1.17;;;0.20;;
52642;SDS011;38531;53.296;6.614;2022-09-13T19:19:00;1.33;;;0.20;;
52642;SDS011;38531;53.296;6.614;2022-09-13T19:21:27;1.75;;;0.10;;
52642;SDS011;38531;53.296;6.614;2022-09-13T19:23:55;1.17;;;0.13;;
52642;SDS011;38531;53.296;6.614;2022-09-13T19:26:23;2.70;;;0.65;;
52642;SDS011;38531;53.296;6.614;2022-09-13T19:28:51;1.88;;;0.20;;
52642;SDS011;38531;53.296;6.614;2022-09-13T19:31:23;1.75;;;0.50;;
52642;SDS011;38531;53.296;6.614;2022-09-13T19:33:50;0.25;;;0.10;;
52642;SDS011;38531;53.296;6.614;2022-09-13T19:36:19;2.33;;;0.20;;
52642;SDS011;38531;53.296;6.614;2022-09-13T19:38:47;0.22;;;0.10;;
52642;SDS011;38531;53.296;6.614;2022-09-13T19:41:15;0.75;;;0.10;;
52642;SDS011;38531;53.296;6.614;2022-09-13T19:43:44;0.93;;;0.20;;
52642;SDS011;38531;53.296;6.614;2022-09-13T19:46:21;0.40;;;0.10;;
52642;SDS011;38531;53.296;6.614;2022-09-13T19:48:51;0.13;;;0.10;;
52642;SDS011;38531;53.296;6.614;2022-09-13T19:51:25;0.20;;;0.10;;
52642;SDS011;38531;53.296;6.614;2022-09-13T19:53:53;0.65;;;0.20;;
52642;SDS011;38531;53.296;6.614;2022-09-13T19:56:21;0.85;;;0.10;;
52642;SDS011;38531;53.296;6.614;2022-09-13T19:58:49;0.38;;;0.10;;
52642;SDS011;38531;53.296;6.614;2022-09-13T20:01:16;0.38;;;0.00;;
52642;SDS011;38531;53.296;6.614;2022-09-13T20:03:48;1.42;;;0.35;;
52642;SDS011;38531;53.296;6.614;2022-09-13T20:06:19;3.20;;;0.20;;
52642;SDS011;38531;53.296;6.614;2022-09-13T20:08:48;1.90;;;0.20;;
52642;SDS011;38531;53.296;6.614;2022-09-13T20:11:15;0.25;;;0.17;;
52642;SDS011;38531;53.296;6.614;2022-09-13T20:13:42;0.55;;;0.20;;
52642;SDS011;38531;53.296;6.614;2022-09-13T20:16:14;0.30;;;0.20;;
52642;SDS011;38531;53.296;6.614;2022-09-13T20:18:43;0.55;;;0.20;;
52642;SDS011;38531;53.296;6.614;2022-09-13T20:21:09;0.35;;;0.20;;
52642;SDS011;38531;53.296;6.614;2022-09-13T20:23:36;0.50;;;0.20;;
52642;SDS011;38531;53.296;6.614;2022-09-13T20:26:03;0.10;;;0.10;;
52642;SDS011;38531;53.296;6.614;2022-09-13T20:28:36;0.47;;;0.10;;
52642;SDS011;38531;53.296;6.614;2022-09-13T20:31:02;1.13;;;0.20;;
52642;SDS011;38531;53.296;6.614;2022-09-13T20:33:29;2.10;;;0.38;;
52642;SDS011;38531;53.296;6.614;2022-09-13T20:35:55;2.85;;;0.47;;
52642;SDS011;38531;53.296;6.614;2022-09-13T20:38:21;1.40;;;0.30;;
52642;SDS011;38531;53.296;6.614;2022-09-13T20:40:47;1.90;;;0.20;;
52642;SDS011;38531;53.296;6.614;2022-09-13T20:43:13;2.53;;;0.30;;
52642;SDS011;38531;53.296;6.614;2022-09-13T20:45:39;0.77;;;0.28;;
52642;SDS011;38531;53.296;6.614;2022-09-13T20:48:05;2.58;;;0.25;;
52642;SDS011;38531;53.296;6.614;2022-09-13T20:50:31;2.88;;;0.20;;
52642;SDS011;38531;53.296;6.614;2022-09-13T20:52:57;0.55;;;0.10;;
52642;SDS011;38531;53.296;6.614;2022-09-13T20:55:23;0.50;;;0.20;;
52642;SDS011;38531;53.296;6.614;2022-09-13T20:57:49;0.70;;;0.17;;
52642;SDS011;38531;53.296;6.614;2022-09-13T21:00:15;2.58;;;0.20;;
52642;SDS011;38531;53.296;6.614;2022-09-13T21:02:41;0.82;;;0.20;;
52642;SDS011;38531;53.296;6.614;2022-09-13T21:05:08;0.65;;;0.17;;
52642;SDS011;38531;53.296;6.614;2022-09-13T21:07:34;3.25;;;0.28;;
52642;SDS011;38531;53.296;6.614;2022-09-13T21:10:18;1.90;;;0.13;;
52642;SDS011;38531;53.296;6.614;2022-09-13T21:12:48;0.32;;;0.10;;
52642;SDS011;38531;53.296;6.614;2022-09-13T21:15:15;1.75;;;0.20;;
52642;SDS011;38531;53.296;6.614;2022-09-13T21:17:41;0.75;;;0.10;;
52642;SDS011;38531;53.296;6.614;2022-09-13T21:20:07;1.00;;;0.10;;
52642;SDS011;38531;53.296;6.614;2022-09-13T21:22:33;0.55;;;0.20;;
52642;SDS011;38531;53.296;6.614;2022-09-13T21:24:59;0.65;;;0.15;;
52642;SDS011;38531;53.296;6.614;2022-09-13T21:27:25;0.32;;;0.10;;
52642;SDS011;38531;53.296;6.614;2022-09-13T21:29:51;1.30;;;0.15;;
52642;SDS011;38531;53.296;6.614;2022-09-13T21:32:17;0.45;;;0.20;;
52642;SDS011;38531;53.296;6.614;2022-09-13T21:34:43;0.60;;;0.10;;
52642;SDS011;38531;53.296;6.614;2022-09-13T21:37:09;0.65;;;0.10;;
52642;SDS011;38531;53.296;6.614;2022-09-13T21:39:35;0.75;;;0.10;;
52642;SDS011;38531;53.296;6.614;2022-09-13T21:42:00;0.30;;;0.03;;
52642;SDS011;38531;53.296;6.614;2022-09-13T21:44:26;1.40;;;0.10;;
52642;SDS011;38531;53.296;6.614;2022-09-13T21:46:52;1.15;;;0.20;;
52642;SDS011;38531;53.296;6.614;2022-09-13T21:49:18;0.17;;;0.15;;
52642;SDS011;38531;53.296;6.614;2022-09-13T21:51:45;0.85;;;0.10;;
52642;SDS011;38531;53.296;6.614;2022-09-13T21:54:13;0.60;;;0.13;;
52642;SDS011;38531;53.296;6.614;2022-09-13T21:56:42;0.25;;;0.10;;
52642;SDS011;38531;53.296;6.614;2022-09-13T21:59:13;0.17;;;0.10;;
52642;SDS011;38531;53.296;6.614;2022-09-13T22:01:40;3.28;;;0.20;;
52642;SDS011;38531;53.296;6.614;2022-09-13T22:04:10;0.35;;;0.20;;
52642;SDS011;38531;53.296;6.614;2022-09-13T22:06:40;1.15;;;0.20;;
52642;SDS011;38531;53.296;6.614;2022-09-13T22:09:07;1.95;;;0.15;;
52642;SDS011;38531;53.296;6.614;2022-09-13T22:11:37;1.92;;;0.10;;